Danforth, South Dakota
Current Conditions -  °F | °C
As of 7:55 PM on Saturday 20 Dec 2014 (Local Time) from KHON Reporting Station
Haze Haze  
Wind Chill: 21°   Ceiling: 400
Heat Index: 30°   Visibility: 5mi
Dew Point: 29°   Wind: 12mph
Humidity: 96%   Direction: 190°S
Pressure: 29.94"   Gusts: NA
Location:  44.3714°N, 98.681°W
Report Text: KHON 210155Z AUTO 19010KT 5SM BR OVC004 M01/M02 A2994 RMK AO2 SLP157 T10111017
Loading
Personal Weather Stations






























Interactive Weather Map New forecast layout! Learn more

10-Day Weather Forecast

Advertisements
Track Severe Weather on mobile